X  Fechar Dados meteorológicos de METAR da aviação        LGTS Thessaloniki Macedonia International
Temperatura
64°F Temperatura
46°F Ponto de orvalho
52% Umidade



Vento
6 MPH
9 KM/H
3 M/S
5 NÓS



120°
LSL
Condições atuais

Mostly Sunny Principalmente ensolarado
Pressão 1017 (hPa) - 30.03 (inHg)
Visibilidade 6 (milha) - 10 (km)
Aeroporto
Código do aeroporto LGTS

Localização: Thessaloniki Macedonia International
Distância: 85 (mi)

Metar:
METAR LGTS 241550Z 12005KT 9999 FEW030 18/08 Q1017 NOSIG

Hora: 24-02-2024 17:50 EET